Hauptseite
METAR-TAF:

METAR-TAF

Flughäfen :

Fliegerhorst Nordholz

Nordholz, Deutschland

Breite: 53-46N, Länge: 008-40E, Höhe: 23 m

Beobachtung

Neuester Wetterbericht von vor 1 Stunde und 1 Minuten, um 23:20 UTC
Wind 4 kt aus Südost
Temperatur -1°C
Luftfeuchtigkeit 93%
Luftdruck 1037 hPa
Sichtweite 10 km oder mehr
Aufgelockert bewölkt in der Höhe von 8000 ft
Durchbrochene Bewölkung in der Höhe von 33000 ft

METAR: ETMN 042320Z 14004KT 9999 SCT080 BKN330 M01/M02 Q1037 BLU+

Zeit: 01:21 (00:21 UTC)


TAF: fehlend

Wetterbeobachtungen und Prognosen von mehr als 4000 Flughäfen (METAR und TAF Bericht).

Die verfügbaren Stationen werden durch gelbe und rote Markierungen auf der Karte dargestellt.

Führen Sie die Maus auf sie, um den Namen der Station zu sehen.

Darauf klicken, um die Beobachtung von Wetterbeobachtungen und Prognosen zu sehen.

Um die Karte zu ändern : klicken Sie auf den grünen Tasten mit einem schwarzen Kreuz Zum Vergrößern, auf den grünen Button mit einem Gedankenstrich zu verkleinern, oder auf die grünen Pfeile für benachbarte Karten.


METAR-TAF: